createdAt,value
2019-05-01T00:09:35.947Z,0.00
2019-05-01T00:24:36.071Z,0.00
2019-05-01T00:39:36.269Z,0.00
2019-05-01T00:54:36.458Z,0.00
2019-05-01T01:09:36.581Z,0.00
2019-05-01T01:24:36.808Z,0.00
2019-05-01T01:39:37.044Z,0.00
2019-05-01T01:54:37.353Z,0.00
2019-05-01T02:09:37.710Z,0.00
2019-05-01T02:24:37.889Z,0.00
2019-05-01T02:39:38.309Z,0.00
2019-05-01T02:54:39.260Z,0.00
2019-05-01T03:09:40.986Z,4.00
2019-05-01T03:24:41.709Z,24.00
2019-05-01T03:39:42.169Z,120.00
2019-05-01T03:54:42.797Z,216.00
2019-05-01T04:09:43.183Z,400.00
2019-05-01T04:24:43.483Z,1284.00
2019-05-01T04:39:44.085Z,2552.00
2019-05-01T04:54:44.319Z,4092.00
2019-05-01T05:09:45.152Z,4324.00
2019-05-01T05:24:45.963Z,3868.00
2019-05-01T05:39:46.287Z,4144.00
2019-05-01T05:54:46.429Z,5024.00
2019-05-01T06:09:48.441Z,8956.00
2019-05-01T06:24:49.915Z,5384.00
2019-05-01T06:39:50.116Z,8856.00
2019-05-01T06:54:52.059Z,6092.00
2019-05-01T07:09:53.095Z,7904.00
2019-05-01T07:24:53.315Z,7712.00
2019-05-01T07:39:53.535Z,8104.00
2019-05-01T07:54:54.210Z,14032.00
2019-05-01T08:09:55.081Z,17856.00
2019-05-01T08:24:58.710Z,16640.00
2019-05-01T08:40:00.329Z,21152.00
2019-05-01T08:55:04.243Z,26912.00
2019-05-01T09:10:08.970Z,18400.00
2019-05-01T09:25:09.168Z,28064.00
2019-05-01T09:40:10.420Z,30944.00
2019-05-01T09:55:11.119Z,54624.00
2019-05-01T10:10:11.324Z,49184.00
2019-05-01T10:25:12.345Z,84928.00
2019-05-01T10:40:13.769Z,55520.00
2019-05-01T10:55:14.422Z,50240.00
2019-05-01T11:10:14.844Z,93664.00
2019-05-01T11:25:15.080Z,29696.00
2019-05-01T11:40:15.279Z,24224.00
2019-05-01T11:55:15.416Z,86752.00
2019-05-01T12:10:15.709Z,35872.00
2019-05-01T12:25:15.829Z,77856.00
2019-05-01T12:40:16.059Z,73152.00
2019-05-01T12:55:16.279Z,63520.00
2019-05-01T13:10:16.701Z,23424.00
2019-05-01T13:25:16.893Z,63904.00
2019-05-01T13:40:17.129Z,48672.00
2019-05-01T13:55:17.536Z,24320.00
2019-05-01T14:10:17.626Z,40448.00
2019-05-01T14:25:18.014Z,34560.00
2019-05-01T14:40:18.255Z,30464.00
2019-05-01T14:55:19.191Z,24352.00
2019-05-01T15:10:19.421Z,18560.00
2019-05-01T15:25:19.667Z,14912.00
2019-05-01T15:40:20.233Z,10744.00
2019-05-01T15:55:20.465Z,7500.00
2019-05-01T16:10:20.616Z,5668.00
2019-05-01T16:25:21.108Z,4800.00
2019-05-01T16:40:21.263Z,3912.00
2019-05-01T16:55:21.532Z,3448.00
2019-05-01T17:10:22.053Z,2596.00
2019-05-01T17:25:22.188Z,2236.00
2019-05-01T17:40:22.596Z,1696.00
2019-05-01T17:55:22.849Z,1196.00
2019-05-01T18:10:23.159Z,836.00
2019-05-01T18:25:23.567Z,328.00
2019-05-01T18:40:23.747Z,88.00
2019-05-01T18:55:25.901Z,12.00
2019-05-01T19:10:26.410Z,0.00
2019-05-01T19:25:26.756Z,0.00
2019-05-01T19:40:30.787Z,0.00
2019-05-01T19:55:32.250Z,0.00
2019-05-01T20:10:32.354Z,0.00
2019-05-01T20:25:32.581Z,0.00
2019-05-01T20:40:32.806Z,0.00
2019-05-01T20:55:34.057Z,0.00
2019-05-01T21:10:35.936Z,0.00
2019-05-01T21:25:36.411Z,0.00
2019-05-01T21:40:40.663Z,0.00
2019-05-01T21:55:40.835Z,0.00
2019-05-01T22:10:51.471Z,0.00
2019-05-01T22:25:47.484Z,0.00
2019-05-01T22:40:47.703Z,0.00
2019-05-01T22:55:47.920Z,0.00
2019-05-01T23:10:48.585Z,0.00
2019-05-01T23:25:48.569Z,0.00
2019-05-01T23:40:50.948Z,0.00
2019-05-01T23:55:54.536Z,0.00
